Portada
METAR-TAF:

METAR-TAF

Aeroports :

Bastia, França

latitud: 42-33N, longitud: 009-29E, altitud: 8 m

Observació

L'informe es va fer fa 18 minuts, a les 05:00 UTC
Vent 7 kt del Sud
Temperatura 19°C
Humitat 60%
Pressió 1013 hPa
Visibilitat 10 km o més
sense núvols per sota de 1500 mi sense presència de cumulonimbus.

METAR: LFKB 220500Z AUTO 19007KT CAVOK 19/11 Q1013 BECMG 12010KT

Hora: 07:18 (05:18 UTC)

Pronòstic

L'informe es va fer fa 3 hores i 18 minuts, a les 02:00 UTC
Pronòstic vàlid del 22 a les 03 UTC al 23 a les 03 UTC
Vent 3 kt del Sud-Oest
Visibilitat 10 km o més
Escasses núvols a una alçada de 3500 ft
Evolucionant progressivament
l' 22 a les 05 UTC al 22 a les 07 UTC
Vent 10 kt del Est/Sud-Est
Evolucionant progressivament
l' 22 a les 19 UTC al 22 a les 21 UTC
Vent 6 kt del Sud

TAF: LFKB 220200Z 2203/2303 23003KT 9999 FEW035 TX26/2212Z TN17/2204Z BECMG 2205/2207 12010KT BECMG 2219/2221 18006KT

Observacions i pronòstics meteorològics de més de 4000 aeroports (METAR i TAF).

Les estacions disponibles són els punts grocs i vermells al mapa.

Posi el ratolí al punt desitjat per veure el nom de l'estació.

Feu clic per veure les observacions i els pronòstics meteorològics.

Per canviar el mapa: feu clic els botons verds amb una creu de color negre per apropar; al botó verd amb un guió per allunyar la imatge; o en les fletxes verdes per a mapes adjacents.


METAR-TAF: